Terminal Aerodrome Forecast
Issued by NWS

Home | Current Version | Previous Version | Text Only | Print | Product List | Glossary On
Versions: 1 2 3 4 5 6 7 8 9 10 11 12
000
FTUS45 KREV 180522
TAFRNO
TAF
KRNO 180522Z 1806/1906 VRB04KT P6SM SCT120 BKN200
     FM181700 21014G30KT P6SM SCT040 BKN080
     FM182100 21025G48KT P6SM BKN040 WS020/25040KT
     FM190400 24020G35KT P6SM BKN040=

USA.gov is the U.S. government's official web portal to all federal, state and local government web resources and services.